Time;durP1;ratioP1;P1;durP2;ratioP2;P2;SDS_P1;SDS_P2;PMS_P1;PMS_P2;Temp;Humidity;BMP_temperature;BMP_pressure;BME280_temperature;BME280_humidity;BME280_pressure;Samples;Min_cycle;Max_cycle;Signal;HPM_P1;HPM_P2
2021/03/03 00:00:54;;;;;;;22.38;10.38;;;7.50;75.60;;;;;;5021644;28;20036;-78
2021/03/03 00:03:20;;;;;;;19.40;8.88;;;7.40;75.60;;;;;;4994589;28;20034;-78
2021/03/03 00:05:45;;;;;;;25.77;9.07;;;7.20;76.10;;;;;;5015770;28;20029;-79
2021/03/03 00:08:11;;;;;;;26.88;10.23;;;7.20;76.30;;;;;;4989851;28;20449;-78
2021/03/03 00:10:36;;;;;;;24.25;10.90;;;7.20;76.60;;;;;;5020756;28;20038;-78
2021/03/03 00:13:03;;;;;;;25.27;11.05;;;7.10;76.80;;;;;;4990811;28;20033;-78
2021/03/03 00:15:28;;;;;;;20.83;10.10;;;7.00;77.70;;;;;;4992935;28;20172;-78
2021/03/03 00:17:54;;;;;;;22.38;9.85;;;7.00;77.60;;;;;;5005477;28;20144;-78
2021/03/03 00:20:19;;;;;;;17.77;8.90;;;7.00;77.50;;;;;;4987890;28;20504;-78
2021/03/03 00:22:45;;;;;;;22.42;10.20;;;7.20;77.70;;;;;;5005615;28;20552;-78
2021/03/03 00:25:11;;;;;;;20.10;10.02;;;7.30;76.60;;;;;;4994839;28;20041;-78
2021/03/03 00:27:36;;;;;;;26.80;11.32;;;7.30;77.30;;;;;;5019442;28;20041;-78
2021/03/03 00:30:02;;;;;;;18.95;9.48;;;7.00;78.10;;;;;;4991602;28;20038;-77
2021/03/03 00:32:27;;;;;;;19.25;9.57;;;6.90;78.30;;;;;;4985271;28;20037;-78
2021/03/03 00:34:53;;;;;;;22.35;9.27;;;6.90;78.90;;;;;;4993415;28;20029;-78
2021/03/03 00:37:18;;;;;;;17.83;9.52;;;7.00;78.70;;;;;;4967112;28;20025;-77
2021/03/03 00:39:44;;;;;;;18.00;8.38;;;7.10;78.30;;;;;;5015137;28;20026;-78
2021/03/03 00:42:11;;;;;;;24.10;9.68;;;7.20;78.30;;;;;;5003107;28;20026;-78
2021/03/03 00:44:37;;;;;;;18.40;8.38;;;7.20;78.10;;;;;;5014674;28;20089;-78
2021/03/03 00:47:02;;;;;;;20.15;9.60;;;7.30;78.10;;;;;;4988226;28;20481;-78
2021/03/03 00:49:28;;;;;;;20.45;9.73;;;7.40;77.40;;;;;;4987449;28;20056;-78
2021/03/03 00:51:53;;;;;;;20.48;9.40;;;7.30;77.10;;;;;;5005051;28;20411;-78
2021/03/03 00:54:19;;;;;;;21.40;9.73;;;7.30;77.40;;;;;;4993046;28;20236;-77
2021/03/03 00:56:45;;;;;;;15.48;7.57;;;7.20;77.40;;;;;;5006807;28;20032;-77
2021/03/03 00:59:10;;;;;;;24.52;9.48;;;7.30;77.70;;;;;;5006743;28;20029;-78
2021/03/03 01:01:36;;;;;;;17.42;8.52;;;7.40;76.80;;;;;;5015647;28;20394;-78
2021/03/03 01:04:01;;;;;;;23.55;9.38;;;7.30;77.20;;;;;;4987257;28;20099;-78
2021/03/03 01:06:27;;;;;;;21.30;8.48;;;7.30;77.20;;;;;;4985076;28;20030;-77
2021/03/03 01:08:52;;;;;;;18.02;8.50;;;7.30;77.70;;;;;;5021772;28;20064;-78
2021/03/03 01:11:18;;;;;;;19.52;9.15;;;7.40;77.20;;;;;;4967955;28;20108;-78
2021/03/03 01:13:44;;;;;;;17.42;9.38;;;7.30;77.30;;;;;;5020271;28;20046;-78
2021/03/03 01:16:09;;;;;;;19.45;8.40;;;7.20;77.90;;;;;;4990517;28;20381;-78
2021/03/03 01:18:35;;;;;;;17.70;9.13;;;7.00;78.80;;;;;;5005620;28;20062;-77
2021/03/03 01:21:00;;;;;;;20.80;9.50;;;7.00;78.60;;;;;;5002774;28;20375;-78
2021/03/03 01:23:26;;;;;;;19.70;8.98;;;6.90;79.10;;;;;;4997974;28;20097;-78
2021/03/03 01:25:51;;;;;;;18.38;8.25;;;6.80;80.10;;;;;;4992801;28;20033;-77
2021/03/03 01:28:17;;;;;;;22.08;10.10;;;7.10;79.00;;;;;;4992826;28;20457;-78
2021/03/03 01:30:42;;;;;;;18.70;9.45;;;7.30;78.40;;;;;;5005785;28;20030;-77
2021/03/03 01:33:08;;;;;;;17.25;8.73;;;7.20;78.20;;;;;;4991581;28;20124;-78
2021/03/03 01:35:33;;;;;;;21.67;9.05;;;7.10;78.60;;;;;;5016901;28;20022;-77
2021/03/03 01:37:59;;;;;;;18.83;8.02;;;7.00;78.90;;;;;;4999685;28;20124;-78
2021/03/03 01:40:24;;;;;;;43.53;10.45;;;7.00;79.30;;;;;;4990267;28;20457;-78
2021/03/03 01:42:52;;;;;;;18.77;9.07;;;7.00;79.10;;;;;;4989419;28;20033;-78
2021/03/03 01:45:18;;;;;;;21.65;8.70;;;7.10;78.50;;;;;;4985549;28;20026;-78
2021/03/03 01:47:43;;;;;;;21.25;9.07;;;6.90;79.50;;;;;;5014421;28;20445;-78
2021/03/03 01:50:10;;;;;;;19.00;8.80;;;6.80;79.80;;;;;;4999242;28;20032;-78
2021/03/03 01:52:38;;;;;;;18.50;9.48;;;6.70;80.40;;;;;;5007148;28;20153;-78
2021/03/03 01:55:04;;;;;;;20.98;8.82;;;6.80;80.10;;;;;;4983603;28;20032;-78
2021/03/03 01:57:29;;;;;;;20.73;9.05;;;6.90;79.70;;;;;;4985236;28;20041;-78
2021/03/03 01:59:55;;;;;;;22.63;9.63;;;6.70;80.10;;;;;;5022211;28;20083;-78
2021/03/03 02:02:24;;;;;;;22.50;9.38;;;6.80;80.20;;;;;;4991059;28;20030;-78
2021/03/03 02:04:51;;;;;;;18.95;8.38;;;6.70;80.30;;;;;;5011655;28;20501;-78
2021/03/03 02:07:25;;;;;;;20.70;8.85;;;6.70;80.50;;;;;;4999639;28;20029;-78
2021/03/03 02:10:12;;;;;;;27.90;8.85;;;6.90;80.10;;;;;;5016518;28;20489;-78
2021/03/03 02:12:47;;;;;;;18.88;7.30;;;6.90;79.20;;;;;;4990901;28;20049;-77
2021/03/03 02:15:13;;;;;;;20.35;8.93;;;6.90;79.80;;;;;;4987357;28;20041;-78
2021/03/03 02:17:40;;;;;;;25.52;10.25;;;6.90;79.30;;;;;;5010945;28;20034;-78
2021/03/03 02:20:07;;;;;;;24.33;8.65;;;6.80;79.60;;;;;;5004125;28;20184;-77
2021/03/03 02:22:39;;;;;;;23.27;9.48;;;6.80;80.00;;;;;;5001599;28;20141;-78
2021/03/03 02:25:34;;;;;;;22.42;10.05;;;6.70;80.30;;;;;;5009064;28;20033;-77
2021/03/03 02:28:00;;;;;;;24.77;9.05;;;6.70;80.10;;;;;;4975658;28;20421;-78
2021/03/03 02:30:26;;;;;;;22.63;9.27;;;6.70;79.80;;;;;;5000430;28;20497;-78
2021/03/03 02:32:52;;;;;;;20.67;8.82;;;6.80;79.80;;;;;;5004467;28;20040;-78
2021/03/03 02:35:18;;;;;;;18.70;7.18;;;6.80;80.30;;;;;;4989818;28;20033;-78
2021/03/03 02:37:43;;;;;;;19.17;9.40;;;7.00;79.00;;;;;;5011685;28;20030;-77
2021/03/03 02:40:09;;;;;;;22.00;10.35;;;7.00;78.70;;;;;;5001992;28;20065;-78
2021/03/03 02:42:38;;;;;;;19.38;8.15;;;6.90;78.90;;;;;;5014111;28;20040;-77
2021/03/03 02:45:08;;;;;;;19.92;9.63;;;6.80;79.10;;;;;;5001054;28;20037;-78
2021/03/03 02:47:34;;;;;;;23.13;10.32;;;6.80;79.20;;;;;;4989423;28;20423;-78
2021/03/03 02:50:00;;;;;;;18.98;9.50;;;6.80;79.00;;;;;;4997106;28;20037;-78
2021/03/03 02:52:27;;;;;;;24.02;9.55;;;7.00;78.90;;;;;;4988687;28;20026;-77
2021/03/03 02:54:53;;;;;;;25.88;10.45;;;6.80;79.00;;;;;;5024469;28;20071;-77
2021/03/03 02:57:20;;;;;;;26.73;10.32;;;7.00;78.70;;;;;;4980398;28;20485;-78
2021/03/03 02:59:52;;;;;;;19.48;9.27;;;6.80;78.60;;;;;;4995265;28;20029;-78
2021/03/03 03:02:19;;;;;;;20.35;8.93;;;6.70;79.50;;;;;;4997255;28;20445;-78
2021/03/03 03:04:45;;;;;;;24.55;9.50;;;6.60;80.00;;;;;;4983269;28;20394;-78
2021/03/03 03:07:16;;;;;;;17.02;8.48;;;6.40;80.60;;;;;;4992237;28;20036;-77
2021/03/03 03:09:41;;;;;;;20.88;9.40;;;6.50;80.50;;;;;;4999586;28;20038;-78
2021/03/03 03:12:07;;;;;;;21.70;10.20;;;6.50;80.10;;;;;;4978959;28;20037;-78
2021/03/03 03:14:33;;;;;;;18.80;9.82;;;6.50;80.70;;;;;;5003914;28;20117;-77
2021/03/03 03:16:59;;;;;;;22.00;9.77;;;6.60;80.10;;;;;;5009592;28;20129;-77
2021/03/03 03:19:28;;;;;;;25.90;9.98;;;6.60;79.80;;;;;;4975878;28;20057;-77
2021/03/03 03:21:54;;;;;;;24.17;9.43;;;6.40;80.60;;;;;;4992842;28;20032;-78
2021/03/03 03:24:19;;;;;;;23.38;9.73;;;6.30;81.30;;;;;;4969801;28;20021;-78
2021/03/03 03:26:47;;;;;;;19.95;9.48;;;6.30;81.40;;;;;;5005155;28;20081;-77
2021/03/03 03:29:12;;;;;;;18.60;9.05;;;6.30;81.30;;;;;;4988982;28;20109;-77
2021/03/03 03:31:38;;;;;;;21.30;9.13;;;6.30;81.40;;;;;;5007493;28;20121;-78
2021/03/03 03:34:05;;;;;;;26.88;10.07;;;6.20;81.20;;;;;;4990925;28;20501;-77
2021/03/03 03:36:31;;;;;;;24.80;10.75;;;6.20;81.60;;;;;;4984280;28;20052;-77
2021/03/03 03:38:57;;;;;;;20.20;10.18;;;6.20;81.70;;;;;;4995060;28;20037;-76
2021/03/03 03:41:22;;;;;;;24.67;10.32;;;6.10;82.20;;;;;;4986955;28;20080;-77
2021/03/03 03:43:48;;;;;;;19.85;9.30;;;6.10;82.30;;;;;;5010650;28;20052;-78
2021/03/03 03:46:13;;;;;;;22.38;10.45;;;6.10;82.50;;;;;;5008613;28;20040;-77
2021/03/03 03:48:39;;;;;;;23.98;9.35;;;6.10;82.50;;;;;;5002403;28;20490;-77
2021/03/03 03:51:05;;;;;;;23.73;9.88;;;6.10;82.10;;;;;;5002288;28;20033;-77
2021/03/03 03:53:31;;;;;;;26.77;8.55;;;6.10;82.10;;;;;;5000407;28;20093;-77
2021/03/03 03:55:56;;;;;;;18.27;9.20;;;6.00;82.50;;;;;;5002891;28;20037;-77
2021/03/03 03:58:22;;;;;;;18.48;9.40;;;6.00;82.50;;;;;;4978276;28;20036;-77
2021/03/03 04:00:48;;;;;;;22.10;9.27;;;6.10;82.20;;;;;;5010531;28;20432;-77
2021/03/03 04:03:13;;;;;;;23.55;10.88;;;6.10;81.60;;;;;;4976476;28;20038;-77
2021/03/03 04:05:39;;;;;;;24.05;10.55;;;5.90;82.40;;;;;;5001611;28;20756;-77
2021/03/03 04:08:05;;;;;;;24.50;10.05;;;5.90;83.20;;;;;;5003642;28;20128;-77
2021/03/03 04:10:30;;;;;;;22.38;9.82;;;5.90;83.50;;;;;;4993168;28;20473;-77
2021/03/03 04:12:56;;;;;;;25.88;10.77;;;5.80;83.60;;;;;;5021750;28;20454;-77
2021/03/03 04:15:22;;;;;;;18.92;9.60;;;5.70;83.90;;;;;;4990691;28;20037;-77
2021/03/03 04:17:48;;;;;;;23.30;9.88;;;5.70;83.80;;;;;;5006738;28;20481;-77
2021/03/03 04:20:14;;;;;;;19.33;9.80;;;5.70;84.00;;;;;;4984145;28;20033;-77
2021/03/03 04:22:40;;;;;;;21.02;9.10;;;5.80;83.60;;;;;;5004065;28;20121;-78
2021/03/03 04:25:08;;;;;;;24.45;11.07;;;5.70;83.90;;;;;;4991395;28;20029;-78
2021/03/03 04:27:33;;;;;;;21.33;10.15;;;5.70;84.00;;;;;;5018434;28;20041;-78
2021/03/03 04:29:59;;;;;;;21.25;9.48;;;5.70;83.90;;;;;;5009147;28;20034;-77
2021/03/03 04:32:24;;;;;;;23.48;10.13;;;5.70;84.20;;;;;;4968426;28;20041;-77
2021/03/03 04:34:50;;;;;;;23.30;10.48;;;5.70;83.90;;;;;;5006873;28;20030;-77
2021/03/03 04:37:16;;;;;;;25.95;9.50;;;5.70;84.00;;;;;;4984528;28;20021;-78
2021/03/03 04:39:41;;;;;;;22.08;10.48;;;5.70;84.00;;;;;;4980367;28;20429;-77
2021/03/03 04:42:07;;;;;;;30.13;11.75;;;5.60;84.20;;;;;;4989087;28;20601;-78
2021/03/03 04:44:32;;;;;;;26.15;11.18;;;5.70;83.70;;;;;;4989188;28;20489;-77
2021/03/03 04:46:58;;;;;;;20.25;9.68;;;5.70;83.80;;;;;;5021163;28;20030;-77
2021/03/03 04:49:24;;;;;;;20.25;10.18;;;5.60;82.90;;;;;;5000279;28;20040;-77
2021/03/03 04:51:50;;;;;;;18.85;9.60;;;5.70;82.70;;;;;;5017251;28;20474;-77
2021/03/03 04:54:15;;;;;;;19.73;9.55;;;5.70;83.10;;;;;;5004559;28;20044;-77
2021/03/03 04:56:41;;;;;;;21.20;10.00;;;5.60;83.30;;;;;;5001305;28;20048;-77
2021/03/03 04:59:06;;;;;;;21.08;9.23;;;5.70;83.60;;;;;;4986192;28;20033;-77
2021/03/03 05:01:32;;;;;;;21.02;10.13;;;5.80;83.30;;;;;;4989631;28;20053;-76
2021/03/03 05:03:58;;;;;;;25.35;9.75;;;5.80;82.90;;;;;;4974546;28;20389;-78
2021/03/03 05:06:23;;;;;;;19.08;8.38;;;5.70;83.10;;;;;;4987358;28;20029;-79
2021/03/03 05:08:49;;;;;;;22.02;9.05;;;5.90;82.80;;;;;;5002343;28;20505;-78
2021/03/03 05:11:14;;;;;;;23.65;9.13;;;6.10;82.00;;;;;;4981254;28;20528;-78
2021/03/03 05:13:40;;;;;;;23.05;9.88;;;5.90;82.50;;;;;;5015889;28;20517;-79
2021/03/03 05:16:06;;;;;;;18.38;9.43;;;5.80;82.30;;;;;;4993295;28;20026;-79
2021/03/03 05:18:31;;;;;;;23.77;9.98;;;5.90;82.90;;;;;;5004401;28;20038;-79
2021/03/03 05:20:57;;;;;;;16.15;8.00;;;5.90;82.40;;;;;;5008544;28;20029;-78
2021/03/03 05:23:29;;;;;;;19.65;8.93;;;5.90;82.70;;;;;;4990423;28;20044;-79
2021/03/03 05:25:56;;;;;;;24.98;10.15;;;5.90;82.70;;;;;;4991968;28;20029;-78
2021/03/03 05:28:21;;;;;;;20.95;10.20;;;6.00;82.50;;;;;;5001878;28;20131;-78
2021/03/03 05:30:47;;;;;;;24.00;9.90;;;6.00;82.40;;;;;;4999808;28;20034;-79
2021/03/03 05:33:21;;;;;;;18.58;8.07;;;5.90;82.60;;;;;;5002843;28;21069;-78
2021/03/03 05:35:46;;;;;;;18.00;8.82;;;6.00;82.10;;;;;;4990864;28;20038;-78
2021/03/03 05:38:12;;;;;;;20.05;9.32;;;6.20;81.50;;;;;;4987050;28;20036;-78
2021/03/03 05:40:37;;;;;;;23.20;10.25;;;6.10;81.30;;;;;;5017624;28;20029;-78
2021/03/03 05:43:03;;;;;;;20.77;9.90;;;5.90;82.30;;;;;;5005205;28;20667;-78
2021/03/03 05:45:28;;;;;;;27.67;10.10;;;6.00;82.40;;;;;;4987410;28;20042;-79
2021/03/03 05:47:54;;;;;;;20.33;9.27;;;5.80;82.80;;;;;;5025707;28;20116;-78
2021/03/03 05:50:19;;;;;;;20.35;10.00;;;5.70;83.40;;;;;;4976905;28;20482;-78
2021/03/03 05:52:45;;;;;;;25.10;10.02;;;5.70;83.60;;;;;;5023532;28;20418;-78
2021/03/03 05:55:11;;;;;;;16.40;8.68;;;5.70;83.60;;;;;;4992833;28;20033;-78
2021/03/03 05:57:37;;;;;;;19.25;9.55;;;5.80;83.40;;;;;;5006146;28;20059;-78
2021/03/03 06:00:05;;;;;;;17.15;7.95;;;5.90;82.50;;;;;;4998272;28;20030;-78
2021/03/03 06:02:32;;;;;;;17.88;8.48;;;6.20;81.50;;;;;;4988055;28;20034;-78
2021/03/03 06:04:58;;;;;;;20.05;8.30;;;6.40;80.80;;;;;;5020258;28;20509;-78
2021/03/03 06:07:24;;;;;;;19.90;8.50;;;6.40;80.70;;;;;;4973954;28;20026;-78
2021/03/03 06:09:50;;;;;;;26.60;9.57;;;6.30;80.60;;;;;;5017285;28;20030;-78
2021/03/03 06:12:15;;;;;;;18.48;9.05;;;6.30;81.00;;;;;;4990938;28;20096;-78
2021/03/03 06:14:41;;;;;;;20.23;8.77;;;6.10;81.60;;;;;;5019455;28;20065;-78
2021/03/03 06:17:07;;;;;;;17.80;7.95;;;6.10;81.90;;;;;;5003742;28;20512;-78
2021/03/03 06:19:32;;;;;;;17.23;8.60;;;6.30;81.00;;;;;;4993678;28;20147;-78
2021/03/03 06:22:24;;;;;;;22.42;9.32;;;6.40;80.90;;;;;;4991383;28;20048;-78
2021/03/03 06:24:50;;;;;;;16.58;6.78;;;6.40;80.80;;;;;;4996961;28;20413;-78
2021/03/03 06:27:15;;;;;;;15.68;8.27;;;6.50;80.50;;;;;;4970386;28;20041;-78
2021/03/03 06:29:41;;;;;;;22.42;9.68;;;6.50;80.30;;;;;;5008606;28;20025;-78
2021/03/03 06:32:06;;;;;;;21.25;10.32;;;6.40;80.80;;;;;;5001830;28;20392;-78
2021/03/03 06:34:32;;;;;;;17.10;8.30;;;6.20;81.40;;;;;;5020996;28;20525;-78
2021/03/03 06:36:59;;;;;;;13.68;7.28;;;6.10;81.80;;;;;;4992166;28;20041;-78
2021/03/03 06:39:29;;;;;;;16.42;7.45;;;6.40;80.80;;;;;;4989412;28;20029;-78
2021/03/03 06:41:56;;;;;;;20.30;8.55;;;6.50;80.10;;;;;;5023320;28;20013;-78
2021/03/03 06:44:23;;;;;;;18.30;6.78;;;6.50;80.20;;;;;;4982165;28;20031;-78
2021/03/03 06:47:01;;;;;;;14.18;7.78;;;6.50;80.20;;;;;;5008145;28;20033;-78
2021/03/03 06:49:27;;;;;;;21.90;8.18;;;6.60;79.80;;;;;;4978546;28;20136;-78
2021/03/03 06:51:53;;;;;;;22.75;9.23;;;6.70;79.50;;;;;;5010071;28;20615;-78
2021/03/03 06:54:20;;;;;;;19.08;8.70;;;6.80;79.40;;;;;;4989708;28;20066;-78
2021/03/03 06:56:55;;;;;;;19.25;8.27;;;6.60;79.80;;;;;;5010836;28;20041;-78
2021/03/03 06:59:31;;;;;;;20.37;7.20;;;6.70;79.90;;;;;;4978975;28;20370;-79
2021/03/03 07:01:58;;;;;;;14.07;7.13;;;6.80;79.50;;;;;;5009449;28;20038;-78
2021/03/03 07:04:29;;;;;;;19.13;7.78;;;6.80;79.20;;;;;;4993217;28;20041;-78
2021/03/03 07:06:56;;;;;;;18.42;7.13;;;6.80;79.00;;;;;;5015396;28;20119;-78
2021/03/03 07:09:23;;;;;;;15.88;7.10;;;6.80;79.00;;;;;;5005331;28;20057;-78
2021/03/03 07:11:49;;;;;;;15.25;6.75;;;6.80;79.30;;;;;;5003799;28;20045;-78
2021/03/03 07:14:21;;;;;;;19.48;8.98;;;6.90;78.90;;;;;;5005841;28;20037;-78
2021/03/03 07:17:07;;;;;;;18.50;8.02;;;6.90;78.90;;;;;;5006551;28;20036;-78
2021/03/03 07:19:34;;;;;;;19.65;8.57;;;6.90;79.40;;;;;;4989733;28;20045;-78
2021/03/03 07:22:00;;;;;;;19.60;7.88;;;6.80;79.70;;;;;;5008473;28;20436;-79
2021/03/03 07:24:26;;;;;;;25.40;10.45;;;6.90;79.70;;;;;;4993479;28;20042;-79
2021/03/03 07:26:51;;;;;;;21.40;9.27;;;7.00;79.40;;;;;;5006640;28;20037;-78
2021/03/03 07:29:17;;;;;;;23.08;9.05;;;7.00;79.00;;;;;;4997013;28;20032;-78
2021/03/03 07:31:42;;;;;;;21.42;7.20;;;7.10;79.00;;;;;;5011282;28;20037;-79
2021/03/03 07:34:08;;;;;;;15.20;7.50;;;7.10;79.00;;;;;;5002695;28;20077;-78
2021/03/03 07:36:34;;;;;;;15.65;7.95;;;7.10;78.80;;;;;;5004705;28;20125;-78
2021/03/03 07:39:02;;;;;;;21.95;7.65;;;7.10;78.70;;;;;;4993285;28;20499;-78
2021/03/03 07:41:28;;;;;;;22.25;9.45;;;7.20;78.90;;;;;;4991758;28;20441;-78
2021/03/03 07:43:53;;;;;;;18.40;8.75;;;7.20;78.60;;;;;;4988874;28;20026;-78
2021/03/03 07:46:19;;;;;;;18.58;8.25;;;7.30;78.80;;;;;;4992689;28;20034;-79
2021/03/03 07:48:47;;;;;;;18.75;8.73;;;7.30;78.90;;;;;;5006104;28;20359;-78
2021/03/03 07:51:12;;;;;;;16.85;7.60;;;7.40;78.60;;;;;;4974789;28;20072;-79
2021/03/03 07:53:40;;;;;;;17.40;8.32;;;7.40;78.50;;;;;;4990186;28;20068;-78
2021/03/03 07:56:09;;;;;;;20.67;7.97;;;7.50;78.00;;;;;;4989994;28;20125;-79
2021/03/03 07:58:35;;;;;;;20.08;8.43;;;7.60;78.10;;;;;;5008076;28;20042;-78
2021/03/03 08:01:02;;;;;;;14.63;7.57;;;7.60;78.10;;;;;;4995835;28;20125;-78
2021/03/03 08:03:46;;;;;;;23.80;11.00;;;7.70;78.10;;;;;;4990479;28;20566;-78
2021/03/03 08:06:21;;;;;;;23.55;10.13;;;7.80;78.20;;;;;;4992745;28;20068;-78
2021/03/03 08:09:05;;;;;;;15.82;8.55;;;8.00;78.10;;;;;;5008126;28;25364;-79
2021/03/03 08:11:35;;;;;;;17.15;8.70;;;8.10;78.10;;;;;;5004238;28;20049;-78
2021/03/03 08:14:01;;;;;;;24.63;10.52;;;8.20;77.70;;;;;;5002855;28;20037;-78
2021/03/03 08:16:30;;;;;;;18.83;8.35;;;8.40;77.30;;;;;;4989478;28;20619;-78
2021/03/03 08:18:58;;;;;;;18.73;8.57;;;8.40;77.60;;;;;;4988095;28;20535;-79
2021/03/03 08:21:25;;;;;;;30.08;12.32;;;8.50;77.90;;;;;;4994927;28;20036;-78
2021/03/03 08:23:59;;;;;;;19.35;8.77;;;8.60;77.40;;;;;;5020461;28;20038;-79
2021/03/03 08:26:28;;;;;;;17.83;7.13;;;8.60;77.50;;;;;;5002991;28;20038;-78
2021/03/03 08:28:55;;;;;;;18.85;9.32;;;8.70;77.30;;;;;;5018777;28;20041;-78
2021/03/03 08:31:24;;;;;;;21.15;10.38;;;8.70;77.20;;;;;;4990055;28;20374;-78
2021/03/03 08:33:49;;;;;;;22.08;8.98;;;8.90;77.30;;;;;;4997453;28;20096;-78
2021/03/03 08:36:21;;;;;;;22.20;10.38;;;9.00;76.70;;;;;;5011511;28;20556;-79
2021/03/03 08:38:52;;;;;;;19.80;8.80;;;9.10;76.30;;;;;;5025571;28;20505;-78
2021/03/03 08:41:19;;;;;;;26.65;10.85;;;9.30;76.10;;;;;;5020636;28;20112;-78
2021/03/03 08:43:45;;;;;;;18.95;10.45;;;9.40;75.60;;;;;;5025169;28;20041;-78
2021/03/03 08:46:20;;;;;;;24.02;10.35;;;9.60;75.20;;;;;;4991906;28;20036;-78
2021/03/03 08:48:51;;;;;;;21.33;10.73;;;9.70;75.10;;;;;;5009607;28;20038;-78
2021/03/03 08:51:31;;;;;;;28.52;10.38;;;9.80;74.90;;;;;;5011243;28;20036;-78
2021/03/03 08:54:06;;;;;;;25.80;9.82;;;9.80;74.70;;;;;;5000434;28;20057;-78
2021/03/03 08:56:39;;;;;;;16.88;9.00;;;10.00;73.80;;;;;;5002431;28;20038;-78
2021/03/03 08:59:28;;;;;;;27.48;10.98;;;10.20;73.70;;;;;;5021638;28;20116;-79
2021/03/03 09:02:12;;;;;;;20.83;10.73;;;10.30;73.10;;;;;;4989659;28;20422;-78
2021/03/03 09:04:38;;;;;;;30.17;12.75;;;10.30;72.80;;;;;;4991761;28;20490;-78
2021/03/03 09:07:23;;;;;;;25.65;8.57;;;10.60;73.20;;;;;;5008698;28;20119;-78
2021/03/03 09:09:58;;;;;;;23.88;10.20;;;10.80;72.50;;;;;;4985416;28;20060;-78
2021/03/03 09:12:24;;;;;;;20.80;9.80;;;11.10;70.90;;;;;;4985023;28;20040;-78
2021/03/03 09:14:52;;;;;;;23.90;11.00;;;11.30;70.50;;;;;;5021940;28;20112;-78
2021/03/03 09:17:21;;;;;;;19.67;9.45;;;11.30;71.00;;;;;;4990186;28;20026;-78
2021/03/03 09:19:46;;;;;;;19.98;9.98;;;11.40;70.30;;;;;;5015430;28;20033;-78
2021/03/03 09:22:20;;;;;;;24.30;9.38;;;11.60;69.90;;;;;;5005767;28;20032;-78
2021/03/03 09:24:46;;;;;;;20.60;9.02;;;11.50;70.20;;;;;;4992361;28;20044;-78
2021/03/03 09:27:12;;;;;;;14.82;8.38;;;11.70;70.50;;;;;;5005946;28;20061;-78
2021/03/03 09:29:39;;;;;;;21.00;9.27;;;12.00;69.30;;;;;;5015343;28;20069;-78
2021/03/03 09:32:22;;;;;;;28.27;10.82;;;12.00;69.00;;;;;;4990717;28;20030;-78
2021/03/03 09:34:50;;;;;;;21.63;10.15;;;12.10;68.90;;;;;;4984708;28;20034;-78
2021/03/03 09:37:16;;;;;;;25.67;9.80;;;12.20;68.10;;;;;;5009883;28;20030;-78
2021/03/03 09:39:42;;;;;;;23.25;10.77;;;12.30;68.30;;;;;;5015168;28;20030;-79
2021/03/03 09:42:09;;;;;;;22.23;9.95;;;12.30;72.20;;;;;;4989781;28;20032;-78
2021/03/03 09:44:54;;;;;;;28.65;13.80;;;12.30;71.60;;;;;;5006112;28;20034;-78
2021/03/03 09:47:24;;;;;;;24.20;11.10;;;12.50;73.10;;;;;;4997295;28;20033;-78
2021/03/03 09:49:50;;;;;;;23.50;11.25;;;12.70;68.50;;;;;;5001164;28;20048;-78
2021/03/03 09:52:15;;;;;;;26.55;11.85;;;13.10;67.00;;;;;;4974819;28;20033;-78
2021/03/03 09:54:41;;;;;;;19.52;9.88;;;13.10;65.80;;;;;;5000990;28;20030;-78
2021/03/03 09:57:12;;;;;;;30.63;14.13;;;13.00;67.80;;;;;;5001783;28;20092;-75
2021/03/03 09:59:40;;;;;;;25.15;11.27;;;13.20;66.80;;;;;;5017187;28;20084;-75
2021/03/03 10:02:06;;;;;;;34.78;13.80;;;13.20;66.80;;;;;;5001496;28;20026;-76
2021/03/03 10:04:31;;;;;;;15.65;6.38;;;13.40;66.10;;;;;;5004130;28;20089;-76
2021/03/03 10:06:58;;;;;;;32.35;14.85;;;13.60;63.70;;;;;;5019493;28;20017;-75
2021/03/03 10:09:23;;;;;;;24.20;10.70;;;13.90;63.60;;;;;;4987647;28;20037;-76
2021/03/03 10:11:49;;;;;;;31.52;16.90;;;14.30;62.30;;;;;;5003597;28;20034;-78
2021/03/03 10:14:14;;;;;;;26.85;10.40;;;14.20;62.00;;;;;;4987516;28;20033;-76
2021/03/03 10:16:40;;;;;;;29.80;13.55;;;14.20;62.10;;;;;;5000779;28;20499;-78
2021/03/03 10:19:08;;;;;;;26.60;13.40;;;14.30;61.40;;;;;;4994022;28;20037;-77
2021/03/03 10:21:37;;;;;;;28.88;14.07;;;14.30;61.30;;;;;;5020699;28;20045;-76
2021/03/03 10:24:19;;;;;;;25.67;12.02;;;14.50;61.40;;;;;;4992657;28;20033;-76
2021/03/03 10:26:48;;;;;;;28.23;15.55;;;14.70;61.80;;;;;;5009428;28;20040;-77
2021/03/03 10:29:39;;;;;;;32.55;14.63;;;15.00;60.90;;;;;;4975924;28;20088;-76
2021/03/03 10:32:14;;;;;;;28.85;14.68;;;14.90;61.10;;;;;;4994826;28;20540;-77
2021/03/03 10:34:40;;;;;;;25.85;11.57;;;14.90;62.40;;;;;;4988526;28;20045;-76
2021/03/03 10:37:05;;;;;;;34.10;13.82;;;15.30;61.60;;;;;;5004194;28;20110;-76
2021/03/03 10:39:33;;;;;;;26.80;14.00;;;15.50;60.80;;;;;;4990610;28;20505;-76
2021/03/03 10:42:05;;;;;;;29.33;13.50;;;15.60;60.70;;;;;;5021081;28;20033;-77
2021/03/03 10:44:38;;;;;;;28.15;14.90;;;15.80;59.70;;;;;;4980605;28;20401;-77
2021/03/03 10:47:04;;;;;;;28.08;14.68;;;15.70;62.00;;;;;;4991495;28;20494;-77
2021/03/03 10:49:29;;;;;;;35.47;17.08;;;16.10;61.10;;;;;;4970578;28;20034;-76
2021/03/03 10:51:55;;;;;;;28.60;14.70;;;16.40;59.10;;;;;;5010867;28;20372;-76
2021/03/03 10:54:35;;;;;;;31.70;15.70;;;16.60;59.20;;;;;;4987180;28;20036;-76
2021/03/03 10:57:09;;;;;;;34.85;16.60;;;16.60;58.80;;;;;;5004674;28;20391;-76
2021/03/03 10:59:38;;;;;;;37.72;18.15;;;16.70;58.20;;;;;;4980251;28;20044;-76
2021/03/03 11:02:07;;;;;;;32.92;15.40;;;16.60;58.50;;;;;;4992060;28;20037;-77
2021/03/03 11:04:43;;;;;;;44.83;17.73;;;16.60;59.00;;;;;;4972558;28;20041;-76
2021/03/03 11:07:09;;;;;;;37.15;19.60;;;16.80;57.90;;;;;;4985819;28;20026;-77
2021/03/03 11:09:35;;;;;;;37.17;14.10;;;16.90;57.80;;;;;;5009996;28;20034;-77
2021/03/03 11:12:01;;;;;;;34.40;18.88;;;17.20;57.40;;;;;;5011755;28;20044;-77
2021/03/03 11:14:28;;;;;;;33.83;16.73;;;17.20;58.20;;;;;;4971472;28;20062;-77
2021/03/03 11:16:54;;;;;;;36.40;19.67;;;17.80;55.30;;;;;;5013923;28;20117;-77
2021/03/03 11:19:20;;;;;;;32.92;15.68;;;17.70;55.70;;;;;;4990734;28;20033;-77
2021/03/03 11:21:45;;;;;;;38.72;20.17;;;18.10;54.20;;;;;;5006050;28;20379;-77
2021/03/03 11:24:11;;;;;;;38.45;17.35;;;17.90;54.90;;;;;;5003119;28;20029;-77
2021/03/03 11:26:38;;;;;;;36.85;18.23;;;18.20;53.70;;;;;;5016329;28;20042;-77
2021/03/03 11:29:04;;;;;;;34.80;18.15;;;18.20;53.10;;;;;;4995636;28;20037;-77
2021/03/03 11:31:30;;;;;;;40.55;22.15;;;18.10;54.80;;;;;;4982270;28;20084;-77
2021/03/03 11:33:56;;;;;;;39.47;20.88;;;18.60;54.40;;;;;;5019268;28;20040;-77
2021/03/03 11:36:21;;;;;;;41.67;20.38;;;18.20;56.00;;;;;;4993303;28;20029;-77
2021/03/03 11:38:50;;;;;;;41.42;17.77;;;18.40;54.70;;;;;;5016948;28;20034;-77
2021/03/03 11:41:15;;;;;;;38.45;18.17;;;18.40;55.30;;;;;;4991969;28;20034;-77
2021/03/03 11:43:41;;;;;;;37.30;18.77;;;18.30;54.30;;;;;;5004384;28;20500;-77
2021/03/03 11:46:06;;;;;;;37.08;20.00;;;18.40;53.90;;;;;;4991963;28;20079;-77
2021/03/03 11:48:33;;;;;;;41.95;20.98;;;18.60;54.50;;;;;;5022796;28;20103;-77
2021/03/03 11:50:58;;;;;;;38.65;23.70;;;18.40;55.50;;;;;;5019281;28;20033;-77
2021/03/03 11:53:24;;;;;;;39.28;19.30;;;18.40;55.10;;;;;;4993657;28;20040;-77
2021/03/03 11:55:49;;;;;;;36.95;20.38;;;18.60;55.50;;;;;;5005108;28;20038;-77
2021/03/03 11:58:15;;;;;;;34.75;21.42;;;18.80;54.70;;;;;;4995125;28;20048;-77
2021/03/03 12:00:40;;;;;;;48.55;23.13;;;18.60;55.20;;;;;;4991613;28;20053;-77
2021/03/03 12:03:06;;;;;;;36.47;18.65;;;18.80;55.10;;;;;;4992108;28;20121;-77
2021/03/03 12:05:32;;;;;;;40.88;20.17;;;19.00;55.00;;;;;;5023306;28;20035;-76
2021/03/03 12:07:57;;;;;;;41.08;21.83;;;19.50;53.00;;;;;;5002617;28;20052;-77
2021/03/03 12:10:23;;;;;;;43.47;20.88;;;19.80;51.80;;;;;;4991192;28;20026;-77
2021/03/03 12:12:48;;;;;;;36.97;19.65;;;19.90;51.80;;;;;;5004728;28;20037;-77
2021/03/03 12:15:14;;;;;;;43.58;22.48;;;19.80;50.60;;;;;;4972914;28;20037;-77
2021/03/03 12:17:40;;;;;;;39.50;19.30;;;20.10;50.20;;;;;;5005660;28;20050;-77
2021/03/03 12:20:06;;;;;;;40.38;19.45;;;20.20;49.60;;;;;;5005341;28;20046;-77
2021/03/03 12:22:32;;;;;;;38.22;21.83;;;20.10;50.30;;;;;;4988544;28;20057;-77
2021/03/03 12:24:58;;;;;;;36.47;18.92;;;20.10;50.10;;;;;;5009701;28;20180;-77
2021/03/03 12:27:23;;;;;;;37.42;19.80;;;20.10;49.90;;;;;;4978089;28;20079;-77
2021/03/03 12:29:49;;;;;;;40.20;18.88;;;20.00;50.60;;;;;;5021871;28;20439;-76
2021/03/03 12:32:14;;;;;;;39.65;20.05;;;19.60;51.80;;;;;;4986394;28;20065;-77
2021/03/03 12:34:40;;;;;;;44.72;22.95;;;19.90;50.70;;;;;;5002342;28;20092;-77
2021/03/03 12:37:06;;;;;;;37.78;18.20;;;19.80;51.20;;;;;;5003820;28;20044;-77
2021/03/03 12:39:31;;;;;;;37.42;20.00;;;19.70;51.70;;;;;;4986349;28;20041;-77
2021/03/03 12:41:57;;;;;;;42.88;19.80;;;19.50;52.30;;;;;;4993623;28;20484;-77